Time;durP1;ratioP1;P1;durP2;ratioP2;P2;SDS_P1;SDS_P2;PMS_P1;PMS_P2;Temp;Humidity;BMP_temperature;BMP_pressure;BME280_temperature;BME280_humidity;BME280_pressure;Samples;Min_cycle;Max_cycle;Signal;HPM_P1;HPM_P2
2021/08/07 00:02:02;;;;;;;;;;;18.60;93.80;;;;;;4302557;33;43309;-84
2021/08/07 00:04:30;;;;;;;;;;;18.60;93.40;;;;;;4315400;33;44064;-84
2021/08/07 00:06:57;;;;;;;;;;;18.60;93.40;;;;;;4316651;33;44022;-85
2021/08/07 00:09:24;;;;;;;;;;;18.60;93.40;;;;;;4315525;33;44748;-84
2021/08/07 00:11:54;;;;;;;;;;;18.60;93.40;;;;;;4315154;33;43944;-84
2021/08/07 00:14:21;;;;;;;;;;;18.60;93.40;;;;;;4316019;33;43653;-85
2021/08/07 00:16:48;;;;;;;;;;;18.60;93.40;;;;;;4316552;33;43067;-84
2021/08/07 00:19:15;;;;;;;;;;;18.60;93.40;;;;;;4315435;33;43308;-85
2021/08/07 00:21:42;;;;;;;;;;;18.60;93.40;;;;;;4316111;33;44417;-85
2021/08/07 00:24:10;;;;;;;;;;;18.60;93.40;;;;;;4315990;33;44636;-86
2021/08/07 00:26:37;;;;;;;;;;;18.60;93.40;;;;;;4315267;33;46006;-84
2021/08/07 00:29:04;;;;;;;;;;;18.60;93.40;;;;;;4314867;33;43963;-83
2021/08/07 00:31:31;;;;;;;;;;;18.60;93.30;;;;;;4315007;33;43792;-83
2021/08/07 00:33:58;;;;;;;;;;;18.60;93.40;;;;;;4314777;33;43273;-84
2021/08/07 00:36:25;;;;;;;;;;;18.60;93.40;;;;;;4316273;33;43247;-83
2021/08/07 00:38:52;;;;;;;;;;;18.60;93.40;;;;;;4315073;33;43133;-84
2021/08/07 00:41:19;;;;;;;;;;;18.60;93.30;;;;;;4315918;33;45721;-83
2021/08/07 00:43:46;;;;;;;;;;;18.60;93.30;;;;;;4316299;33;44828;-85
2021/08/07 00:46:13;;;;;;;;;;;18.60;93.30;;;;;;4315190;33;43567;-83
2021/08/07 00:48:41;;;;;;;;;;;18.50;93.30;;;;;;4316158;33;42438;-83
2021/08/07 00:51:08;;;;;;;;;;;18.50;93.30;;;;;;4316151;33;43887;-84
2021/08/07 00:53:38;;;;;;;;;;;18.50;93.30;;;;;;4315067;33;45006;-84
2021/08/07 00:56:08;;;;;;;;;;;18.50;93.30;;;;;;4315867;33;44750;-84
2021/08/07 00:58:38;;;;;;;;;;;18.50;93.30;;;;;;4314656;33;44234;-83
2021/08/07 01:01:08;;;;;;;;;;;18.50;93.30;;;;;;4315946;33;44747;-84
2021/08/07 01:03:46;;;;;;;;;;;18.50;93.30;;;;;;4316068;33;43413;-85
2021/08/07 01:06:31;;;;;;;;;;;18.50;93.30;;;;;;4316204;33;44521;-83
2021/08/07 01:09:17;;;;;;;;;;;18.50;93.40;;;;;;4314363;33;45245;-83
2021/08/07 01:11:53;;;;;;;;;;;18.50;93.40;;;;;;4314311;33;44297;-84
2021/08/07 01:14:25;;;;;;;;;;;18.50;93.40;;;;;;4315249;33;45738;-83
2021/08/07 01:16:58;;;;;;;;;;;18.50;93.40;;;;;;4314695;33;42607;-84
2021/08/07 01:19:35;;;;;;;;;;;18.50;93.40;;;;;;4314897;33;44929;-84
2021/08/07 01:22:04;;;;;;;;;;;18.50;93.40;;;;;;4314828;33;44310;-85
2021/08/07 01:24:37;;;;;;;;;;;18.40;93.40;;;;;;4315790;33;20017;-84
2021/08/07 01:27:19;;;;;;;;;;;18.40;93.30;;;;;;4314385;33;43796;-84
2021/08/07 01:29:52;;;;;;;;;;;18.40;93.30;;;;;;4314483;33;43855;-85
2021/08/07 01:32:30;;;;;;;;;;;18.40;93.30;;;;;;4314790;33;45731;-84
2021/08/07 01:35:03;;;;;;;;;;;18.40;93.30;;;;;;4314772;33;44529;-84
2021/08/07 01:37:34;;;;;;;;;;;18.40;93.40;;;;;;4314353;33;42933;-83
2021/08/07 01:40:09;;;;;;;;;;;18.40;93.30;;;;;;4314814;33;44164;-84
2021/08/07 01:42:41;;;;;;;;;;;18.40;93.70;;;;;;4314634;33;44908;-83
2021/08/07 01:45:09;;;;;;;;;;;18.40;93.40;;;;;;4314681;33;42765;-84
2021/08/07 01:47:42;;;;;;;;;;;18.40;93.40;;;;;;4302936;33;44881;-84
2021/08/07 01:50:31;;;;;;;;;;;18.40;93.40;;;;;;4314547;33;44437;-83
2021/08/07 01:53:07;;;;;;;;;;;18.40;93.40;;;;;;4314146;33;43223;-83
2021/08/07 01:55:50;;;;;;;;;;;18.40;93.40;;;;;;4314999;33;20021;-83
2021/08/07 01:58:31;;;;;;;;;;;18.40;93.40;;;;;;4315336;33;43439;-83
2021/08/07 02:01:07;;;;;;;;;;;18.30;93.30;;;;;;4314762;33;43228;-83
2021/08/07 02:03:40;;;;;;;;;;;18.30;93.40;;;;;;4314149;33;43405;-83
2021/08/07 02:06:18;;;;;;;;;;;18.30;93.40;;;;;;4315216;33;43447;-83
2021/08/07 02:08:46;;;;;;;;;;;18.30;93.40;;;;;;4314639;33;44239;-83
2021/08/07 02:11:19;;;;;;;;;;;18.30;93.40;;;;;;4314526;33;44464;-83
2021/08/07 02:13:51;;;;;;;;;;;18.30;93.40;;;;;;4315231;33;44042;-83
2021/08/07 02:16:30;;;;;;;;;;;18.30;93.40;;;;;;4314458;33;44420;-83
2021/08/07 02:19:05;;;;;;;;;;;18.30;93.40;;;;;;4314141;33;42890;-83
2021/08/07 02:21:38;;;;;;;;;;;18.30;93.50;;;;;;4314349;33;46279;-83
2021/08/07 02:24:13;;;;;;;;;;;18.30;93.50;;;;;;4314564;33;45826;-82
2021/08/07 02:26:52;;;;;;;;;;;18.20;93.40;;;;;;4316749;33;19998;-83
2021/08/07 02:29:28;;;;;;;;;;;18.20;93.40;;;;;;4317513;33;44018;-83
2021/08/07 02:31:56;;;;;;;;;;;18.20;93.50;;;;;;4316551;33;43473;-83
2021/08/07 02:34:33;;;;;;;;;;;18.30;93.50;;;;;;4316981;33;43879;-83
2021/08/07 02:37:09;;;;;;;;;;;18.20;93.50;;;;;;4316866;33;43433;-83
2021/08/07 02:39:44;;;;;;;;;;;18.20;93.50;;;;;;4316812;33;46167;-83
2021/08/07 02:42:19;;;;;;;;;;;18.20;93.50;;;;;;4317532;33;42613;-83
2021/08/07 02:44:57;;;;;;;;;;;18.20;93.50;;;;;;4317968;33;46046;-83
2021/08/07 02:47:36;;;;;;;;;;;18.20;93.50;;;;;;4316631;33;44763;-83
2021/08/07 02:50:12;;;;;;;;;;;18.10;93.50;;;;;;4317158;33;44131;-83
2021/08/07 02:52:47;;;;;;;;;;;18.10;93.60;;;;;;4316888;33;45058;-84
2021/08/07 02:55:14;;;;;;;;;;;18.10;93.60;;;;;;4317669;33;45732;-84
2021/08/07 02:57:47;;;;;;;;;;;18.10;93.60;;;;;;4317670;33;45729;-83
2021/08/07 03:00:26;;;;;;;;;;;18.10;93.60;;;;;;4316588;33;44897;-84
2021/08/07 03:03:01;;;;;;;;;;;18.10;93.70;;;;;;4316097;33;43177;-84
2021/08/07 03:05:42;;;;;;;;;;;18.10;93.70;;;;;;4316563;33;45529;-84
2021/08/07 03:08:18;;;;;;;;;;;18.00;93.70;;;;;;4316403;33;44700;-83
2021/08/07 03:10:50;;;;;;;;;;;18.00;93.70;;;;;;4316275;33;44042;-84
2021/08/07 03:13:26;;;;;;;;;;;18.00;93.80;;;;;;4316557;33;44850;-83
2021/08/07 03:16:07;;;;;;;;;;;18.00;93.80;;;;;;4316122;33;42672;-84
2021/08/07 03:18:42;;;;;;;;;;;18.00;93.80;;;;;;4316401;33;43692;-84
2021/08/07 03:21:12;;;;;;;;;;;17.90;93.80;;;;;;4316652;33;44113;-85
2021/08/07 03:23:47;;;;;;;;;;;18.00;93.80;;;;;;4316809;33;44146;-84
2021/08/07 03:26:20;;;;;;;;;;;17.90;93.80;;;;;;4316812;33;42871;-83
2021/08/07 03:28:58;;;;;;;;;;;17.90;93.80;;;;;;4317751;33;20037;-84
2021/08/07 03:31:33;;;;;;;;;;;17.90;93.80;;;;;;4317246;33;44247;-83
2021/08/07 03:34:09;;;;;;;;;;;17.90;93.80;;;;;;4316025;33;44544;-84
2021/08/07 03:36:47;;;;;;;;;;;17.90;93.80;;;;;;4317255;33;43504;-83
2021/08/07 03:39:25;;;;;;;;;;;17.90;93.80;;;;;;4315448;33;44324;-84
2021/08/07 03:42:00;;;;;;;;;;;17.90;93.80;;;;;;4317153;33;44608;-84
2021/08/07 03:44:27;;;;;;;;;;;17.90;93.80;;;;;;4317014;33;43866;-86
2021/08/07 03:46:59;;;;;;;;;;;17.90;93.80;;;;;;4315484;33;44759;-84
2021/08/07 03:49:41;;;;;;;;;;;17.90;93.90;;;;;;4315824;33;46094;-84
2021/08/07 03:52:16;;;;;;;;;;;17.90;93.90;;;;;;4315695;33;43312;-84
2021/08/07 03:54:52;;;;;;;;;;;17.80;93.90;;;;;;4315678;33;44170;-84
2021/08/07 03:57:33;;;;;;;;;;;17.80;93.90;;;;;;4315738;33;44774;-84
2021/08/07 04:00:05;;;;;;;;;;;17.80;93.90;;;;;;4317088;33;20470;-84
2021/08/07 04:02:46;;;;;;;;;;;17.80;93.90;;;;;;4315344;33;43114;-83
2021/08/07 04:05:16;;;;;;;;;;;17.80;93.90;;;;;;4315635;33;43305;-84
2021/08/07 04:07:57;;;;;;;;;;;17.90;93.90;;;;;;4315733;33;43856;-84
2021/08/07 04:10:35;;;;;;;;;;;17.90;93.90;;;;;;4315786;33;43180;-85
2021/08/07 04:13:05;;;;;;;;;;;17.80;93.90;;;;;;4315711;33;43178;-85
2021/08/07 04:15:43;;;;;;;;;;;17.80;93.80;;;;;;4315498;33;43916;-84
2021/08/07 04:18:19;;;;;;;;;;;17.80;93.80;;;;;;4315422;33;44410;-84
2021/08/07 04:20:54;;;;;;;;;;;17.80;93.80;;;;;;4315352;33;43876;-84
2021/08/07 04:23:32;;;;;;;;;;;17.80;93.80;;;;;;4315427;33;42775;-84
2021/08/07 04:26:04;;;;;;;;;;;17.80;93.90;;;;;;4314992;33;43065;-85
2021/08/07 04:28:45;;;;;;;;;;;17.80;93.90;;;;;;4315468;33;45059;-84
2021/08/07 04:31:20;;;;;;;;;;;17.80;93.90;;;;;;4317143;33;20042;-85
2021/08/07 04:33:55;;;;;;;;;;;17.70;93.90;;;;;;4316427;33;44488;-84
2021/08/07 04:36:28;;;;;;;;;;;17.70;94.00;;;;;;4315939;33;43025;-85
2021/08/07 04:38:58;;;;;;;;;;;17.70;94.00;;;;;;4315504;33;44696;-84
2021/08/07 04:41:36;;;;;;;;;;;17.70;94.10;;;;;;4315210;33;44874;-84
2021/08/07 04:44:11;;;;;;;;;;;17.70;94.10;;;;;;4316365;33;44072;-84
2021/08/07 04:46:44;;;;;;;;;;;17.60;94.10;;;;;;4315083;33;44081;-84
2021/08/07 04:49:22;;;;;;;;;;;17.60;94.10;;;;;;4314750;33;44924;-84
2021/08/07 04:51:57;;;;;;;;;;;17.60;94.20;;;;;;4315181;33;44850;-84
2021/08/07 04:54:35;;;;;;;;;;;17.60;94.20;;;;;;4315183;33;45739;-84
2021/08/07 04:57:10;;;;;;;;;;;17.60;94.20;;;;;;4314669;33;42928;-84
2021/08/07 04:59:48;;;;;;;;;;;17.50;94.20;;;;;;4315051;33;43399;-84
2021/08/07 05:02:16;;;;;;;;;;;17.60;94.30;;;;;;4314703;33;45635;-84
2021/08/07 05:04:48;;;;;;;;;;;17.50;94.30;;;;;;4314503;33;44606;-87
2021/08/07 05:07:24;;;;;;;;;;;17.60;94.40;;;;;;4315961;33;45744;-84
2021/08/07 05:10:01;;;;;;;;;;;17.50;94.30;;;;;;4316007;33;45750;-84
2021/08/07 05:12:36;;;;;;;;;;;17.50;94.40;;;;;;4314845;33;43734;-84
2021/08/07 05:15:12;;;;;;;;;;;17.50;94.40;;;;;;4315876;33;45674;-84
2021/08/07 05:17:53;;;;;;;;;;;17.50;94.40;;;;;;4314932;33;44689;-83
2021/08/07 05:20:35;;;;;;;;;;;17.50;94.50;;;;;;4314778;33;45572;-84
2021/08/07 05:23:10;;;;;;;;;;;17.50;94.50;;;;;;4316061;33;45323;-83
2021/08/07 05:25:48;;;;;;;;;;;17.50;94.50;;;;;;4315964;33;45317;-84
2021/08/07 05:28:15;;;;;;;;;;;17.40;94.50;;;;;;4315448;33;42959;-84
2021/08/07 05:30:48;;;;;;;;;;;17.40;94.60;;;;;;4302359;33;45610;-85
2021/08/07 05:33:26;;;;;;;;;;;17.40;94.60;;;;;;4314771;33;44205;-87
2021/08/07 05:36:04;;;;;;;;;;;17.40;94.60;;;;;;4314550;33;45047;-85
2021/08/07 05:38:36;;;;;;;;;;;17.40;94.70;;;;;;4302517;33;45658;-84
2021/08/07 05:41:11;;;;;;;;;;;17.40;94.70;;;;;;4315843;33;46300;-83
2021/08/07 05:43:46;;;;;;;;;;;17.40;94.70;;;;;;4314692;33;45280;-84
2021/08/07 05:46:22;;;;;;;;;;;17.40;94.70;;;;;;4314725;33;45811;-84
2021/08/07 05:48:57;;;;;;;;;;;17.40;94.70;;;;;;4314641;33;45019;-85
2021/08/07 05:51:34;;;;;;;;;;;17.40;94.70;;;;;;4314471;33;44357;-84
2021/08/07 05:54:05;;;;;;;;;;;17.40;94.80;;;;;;4314644;33;44936;-85
2021/08/07 05:56:46;;;;;;;;;;;17.40;94.80;;;;;;4314617;33;43874;-85
2021/08/07 05:59:21;;;;;;;;;;;17.40;95.10;;;;;;4314554;33;44016;-84
2021/08/07 06:01:52;;;;;;;;;;;17.40;94.80;;;;;;4316859;33;45076;-83
2021/08/07 06:04:30;;;;;;;;;;;17.40;94.80;;;;;;4318292;33;20045;-84
2021/08/07 06:07:03;;;;;;;;;;;17.40;94.80;;;;;;4317317;33;45642;-84
2021/08/07 06:09:41;;;;;;;;;;;17.40;94.80;;;;;;4317372;33;43523;-85
2021/08/07 06:12:20;;;;;;;;;;;17.40;94.80;;;;;;4316999;33;45920;-84
2021/08/07 06:14:52;;;;;;;;;;;17.40;94.90;;;;;;4318390;33;44371;-81
2021/08/07 06:17:19;;;;;;;;;;;17.40;94.90;;;;;;4318551;33;45142;-84
2021/08/07 06:19:54;;;;;;;;;;;17.40;94.80;;;;;;4317098;33;45570;-83
2021/08/07 06:22:32;;;;;;;;;;;17.40;94.80;;;;;;4317032;33;43756;-84
2021/08/07 06:25:09;;;;;;;;;;;17.40;94.90;;;;;;4317172;33;45719;-84
2021/08/07 06:28:00;;;;;;;;;;;17.40;94.90;;;;;;4316980;33;44982;-85
2021/08/07 06:30:42;;;;;;;;;;;17.40;94.90;;;;;;4316916;33;46005;-85
2021/08/07 06:33:15;;;;;;;;;;;17.40;94.90;;;;;;4316855;33;42255;-84
2021/08/07 06:35:53;;;;;;;;;;;17.40;94.90;;;;;;4317810;33;20009;-80
2021/08/07 06:38:28;;;;;;;;;;;17.40;95.00;;;;;;4318017;33;45880;-83
2021/08/07 06:41:09;;;;;;;;;;;17.40;95.00;;;;;;4316947;33;46074;-83
2021/08/07 06:43:46;;;;;;;;;;;17.30;94.90;;;;;;4317928;33;45867;-79
2021/08/07 06:46:24;;;;;;;;;;;17.40;95.00;;;;;;4316596;33;44620;-79
2021/08/07 06:48:52;;;;;;;;;;;17.40;95.00;;;;;;4317367;33;44218;-80
2021/08/07 06:51:27;;;;;;;;;;;17.40;95.00;;;;;;4316257;33;45135;-79
2021/08/07 06:53:54;;;;;;;;;;;17.40;95.00;;;;;;4317443;33;44064;-80
2021/08/07 06:56:30;;;;;;;;;;;17.40;95.00;;;;;;4316172;33;42188;-78
2021/08/07 06:59:09;;;;;;;;;;;17.40;95.10;;;;;;4316775;33;44140;-80
2021/08/07 07:01:44;;;;;;;;;;;17.40;95.10;;;;;;4316959;33;43112;-79
2021/08/07 07:04:20;;;;;;;;;;;17.40;95.10;;;;;;4317596;33;44534;-80
2021/08/07 07:06:58;;;;;;;;;;;17.40;95.10;;;;;;4317378;33;19994;-78
2021/08/07 07:09:30;;;;;;;;;;;17.40;95.10;;;;;;4316898;33;44008;-79
2021/08/07 07:11:57;;;;;;;;;;;17.40;95.10;;;;;;4315950;33;43710;-79
2021/08/07 07:14:34;;;;;;;;;;;17.40;95.20;;;;;;4316488;33;43038;-78
2021/08/07 07:17:12;;;;;;;;;;;17.40;95.20;;;;;;4316401;33;42171;-80
2021/08/07 07:19:50;;;;;;;;;;;17.40;95.20;;;;;;4317366;33;43776;-79
2021/08/07 07:22:28;;;;;;;;;;;17.40;95.20;;;;;;4316951;33;42680;-79
2021/08/07 07:24:55;;;;;;;;;;;17.40;95.20;;;;;;4316901;33;43473;-80
2021/08/07 07:27:30;;;;;;;;;;;17.50;95.20;;;;;;4316231;33;42423;-79
2021/08/07 07:30:04;;;;;;;;;;;17.50;95.20;;;;;;4316152;33;43443;-83
2021/08/07 07:32:34;;;;;;;;;;;17.40;95.20;;;;;;4315949;33;45969;-85
2021/08/07 07:35:03;;;;;;;;;;;17.40;95.20;;;;;;4317528;33;43924;-83
2021/08/07 07:37:38;;;;;;;;;;;17.40;95.20;;;;;;4316728;33;45911;-84
2021/08/07 07:40:16;;;;;;;;;;;17.40;95.20;;;;;;4317039;33;44680;-82
2021/08/07 07:42:55;;;;;;;;;;;17.40;95.20;;;;;;4315867;33;45901;-85
2021/08/07 07:45:22;;;;;;;;;;;17.50;95.20;;;;;;4317037;33;45569;-83
2021/08/07 07:48:03;;;;;;;;;;;17.40;95.20;;;;;;4317082;33;45911;-82
2021/08/07 07:50:35;;;;;;;;;;;17.40;95.20;;;;;;4317032;33;44066;-78
2021/08/07 07:53:04;;;;;;;;;;;17.40;95.20;;;;;;4316759;33;43902;-82
2021/08/07 07:55:31;;;;;;;;;;;17.40;95.20;;;;;;4315477;33;44133;-85
2021/08/07 07:58:09;;;;;;;;;;;17.40;95.20;;;;;;4315397;33;43851;-86
2021/08/07 08:00:42;;;;;;;;;;;17.40;95.20;;;;;;4315774;33;43008;-82
2021/08/07 08:03:18;;;;;;;;;;;17.50;95.20;;;;;;4315565;33;45521;-86
2021/08/07 08:05:52;;;;;;;;;;;17.50;95.20;;;;;;4315669;33;44247;-82
2021/08/07 08:08:27;;;;;;;;;;;17.50;95.20;;;;;;4316924;33;20001;-83
2021/08/07 08:11:06;;;;;;;;;;;17.50;95.20;;;;;;4316859;33;43259;-84
2021/08/07 08:13:41;;;;;;;;;;;17.50;95.30;;;;;;4303542;33;44816;-84
2021/08/07 08:16:16;;;;;;;;;;;17.50;95.30;;;;;;4315452;33;44863;-82
2021/08/07 08:18:44;;;;;;;;;;;17.50;95.30;;;;;;4315703;33;46168;-82
2021/08/07 08:21:19;;;;;;;;;;;17.50;95.30;;;;;;4315236;33;44062;-83
2021/08/07 08:23:54;;;;;;;;;;;17.50;95.20;;;;;;4315061;33;44350;-84
2021/08/07 08:26:30;;;;;;;;;;;17.50;95.20;;;;;;4315325;33;44187;-84
2021/08/07 08:29:08;;;;;;;;;;;17.50;95.20;;;;;;4316416;33;43470;-80
2021/08/07 08:31:39;;;;;;;;;;;17.50;95.20;;;;;;4315231;33;45004;-80
2021/08/07 08:34:11;;;;;;;;;;;17.60;95.20;;;;;;4315256;33;45109;-78
2021/08/07 08:36:44;;;;;;;;;;;17.60;95.20;;;;;;4315283;33;44244;-81
2021/08/07 08:39:23;;;;;;;;;;;17.50;95.10;;;;;;4316251;33;20419;-80
2021/08/07 08:41:57;;;;;;;;;;;17.60;95.20;;;;;;4315819;33;42987;-80
2021/08/07 08:44:36;;;;;;;;;;;17.60;95.20;;;;;;4315385;33;42800;-79
2021/08/07 08:47:04;;;;;;;;;;;17.70;95.20;;;;;;4315218;33;44185;-80
2021/08/07 08:49:32;;;;;;;;;;;17.70;95.10;;;;;;4314659;33;45190;-83
2021/08/07 08:52:08;;;;;;;;;;;17.70;95.10;;;;;;4314941;33;43184;-82
2021/08/07 08:54:38;;;;;;;;;;;17.70;95.00;;;;;;4315101;33;44097;-86
2021/08/07 08:57:13;;;;;;;;;;;17.70;95.00;;;;;;4314595;33;42689;-78
2021/08/07 08:59:46;;;;;;;;;;;17.70;94.90;;;;;;4315169;33;43182;-82
2021/08/07 09:02:17;;;;;;;;;;;17.70;94.80;;;;;;4302558;33;45787;-83
2021/08/07 09:04:52;;;;;;;;;;;17.70;94.90;;;;;;4315215;33;45180;-82
2021/08/07 09:07:19;;;;;;;;;;;17.70;94.90;;;;;;4316063;33;43311;-83
2021/08/07 09:09:58;;;;;;;;;;;17.70;94.80;;;;;;4314935;33;45443;-83
2021/08/07 09:13:03;;;;;;;;;;;17.80;94.80;;;;;;4315846;33;46049;-81
2021/08/07 09:15:42;;;;;;;;;;;17.80;94.80;;;;;;4314934;33;45735;-80
2021/08/07 09:18:13;;;;;;;;;;;17.80;94.80;;;;;;4314869;33;43367;-80
2021/08/07 09:20:52;;;;;;;;;;;17.80;94.80;;;;;;4314454;33;43467;-82
2021/08/07 09:23:35;;;;;;;;;;;17.80;94.60;;;;;;4302467;33;42315;-84
2021/08/07 09:26:17;;;;;;;;;;;17.90;94.60;;;;;;4314776;33;43990;-85
2021/08/07 09:28:56;;;;;;;;;;;17.90;94.60;;;;;;4314408;33;42890;-85
2021/08/07 09:31:26;;;;;;;;;;;17.90;94.40;;;;;;4314703;33;44125;-82
2021/08/07 09:34:16;;;;;;;;;;;17.90;94.40;;;;;;4314340;33;43973;-82
2021/08/07 09:36:53;;;;;;;;;;;17.90;94.30;;;;;;4317565;33;42601;-79
2021/08/07 09:39:45;;;;;;;;;;;17.90;94.30;;;;;;4318917;33;44399;-81
2021/08/07 09:42:12;;;;;;;;;;;18.00;94.20;;;;;;4317413;33;45279;-84
2021/08/07 09:44:39;;;;;;;;;;;17.90;94.20;;;;;;4317546;33;43882;-85
2021/08/07 09:47:16;;;;;;;;;;;17.90;94.10;;;;;;4317295;33;42927;-81
2021/08/07 09:49:51;;;;;;;;;;;18.00;94.20;;;;;;4318269;33;42672;-86
2021/08/07 09:52:35;;;;;;;;;;;18.00;94.10;;;;;;4318550;33;43046;-82
2021/08/07 09:55:02;;;;;;;;;;;18.00;94.20;;;;;;4317702;33;43466;-85
2021/08/07 09:57:32;;;;;;;;;;;18.00;94.10;;;;;;4317453;33;45916;-79
2021/08/07 09:59:59;;;;;;;;;;;18.10;94.00;;;;;;4318005;33;43129;-85
2021/08/07 10:02:38;;;;;;;;;;;18.00;93.90;;;;;;4316979;33;43478;-84
2021/08/07 10:05:08;;;;;;;;;;;18.10;94.00;;;;;;4318280;33;42303;-85
2021/08/07 10:07:41;;;;;;;;;;;18.10;94.00;;;;;;4317221;33;43482;-85
2021/08/07 10:10:21;;;;;;;;;;;18.10;94.00;;;;;;4317517;33;42713;-82
2021/08/07 10:12:55;;;;;;;;;;;18.10;94.00;;;;;;4316709;33;43948;-84
2021/08/07 10:15:33;;;;;;;;;;;18.20;93.90;;;;;;4304955;33;43867;-83
2021/08/07 10:18:07;;;;;;;;;;;18.20;93.80;;;;;;4318272;33;46330;-84
2021/08/07 10:20:43;;;;;;;;;;;18.20;93.90;;;;;;4317292;33;45880;-83
2021/08/07 10:23:19;;;;;;;;;;;18.20;93.80;;;;;;4317106;33;44818;-84
2021/08/07 10:25:55;;;;;;;;;;;18.20;93.80;;;;;;4317720;33;43546;-82
2021/08/07 10:28:26;;;;;;;;;;;18.20;93.70;;;;;;4318387;33;45882;-85
2021/08/07 10:30:58;;;;;;;;;;;18.20;93.70;;;;;;4316955;33;43508;-83
2021/08/07 10:33:34;;;;;;;;;;;18.30;93.70;;;;;;4317022;33;43516;-85
2021/08/07 10:36:04;;;;;;;;;;;18.30;93.60;;;;;;4318026;33;45901;-84
2021/08/07 10:38:39;;;;;;;;;;;18.30;93.60;;;;;;4317891;33;44222;-84
2021/08/07 10:41:12;;;;;;;;;;;18.30;93.50;;;;;;4316831;33;44752;-82
2021/08/07 10:43:40;;;;;;;;;;;18.30;93.50;;;;;;4317390;33;20029;-80
2021/08/07 10:46:15;;;;;;;;;;;18.40;93.30;;;;;;4316668;33;42695;-83
2021/08/07 10:48:47;;;;;;;;;;;18.40;93.30;;;;;;4316618;33;45923;-84
2021/08/07 10:51:29;;;;;;;;;;;18.40;93.30;;;;;;4317984;33;45343;-82
2021/08/07 10:53:57;;;;;;;;;;;18.40;93.30;;;;;;4317908;33;43950;-81
2021/08/07 10:56:24;;;;;;;;;;;18.50;93.10;;;;;;4317478;33;43206;-84
2021/08/07 10:59:09;;;;;;;;;;;18.50;93.00;;;;;;4316223;33;43486;-82
2021/08/07 11:01:45;;;;;;;;;;;18.50;92.70;;;;;;4317049;33;42917;-78
2021/08/07 11:04:13;;;;;;;;;;;18.60;92.90;;;;;;4317275;33;44077;-86
2021/08/07 11:06:46;;;;;;;;;;;18.60;92.90;;;;;;4316061;33;44359;-84
2021/08/07 11:09:19;;;;;;;;;;;18.70;93.00;;;;;;4316165;33;43855;-83
2021/08/07 11:12:18;;;;;;;;;;;18.70;92.80;;;;;;4316048;33;43548;-82
2021/08/07 11:14:52;;;;;;;;;;;18.70;92.70;;;;;;4317356;33;44679;-82
2021/08/07 11:17:19;;;;;;;;;;;18.70;92.60;;;;;;4316536;33;44128;-81
2021/08/07 11:20:00;;;;;;;;;;;18.80;92.60;;;;;;4316973;33;42500;-83
2021/08/07 11:22:35;;;;;;;;;;;18.80;92.70;;;;;;4315938;33;43273;-83
2021/08/07 11:25:26;;;;;;;;;;;18.80;92.60;;;;;;4315980;33;44808;-81
2021/08/07 11:27:58;;;;;;;;;;;18.80;92.30;;;;;;4316235;33;45824;-82
2021/08/07 11:30:29;;;;;;;;;;;18.80;92.30;;;;;;4316257;33;45786;-82
2021/08/07 11:32:56;;;;;;;;;;;18.80;92.30;;;;;;4317155;33;44860;-79
2021/08/07 11:35:43;;;;;;;;;;;18.80;92.40;;;;;;4316824;33;43282;-81
2021/08/07 11:38:25;;;;;;;;;;;18.80;92.40;;;;;;4316089;33;43782;-84
2021/08/07 11:40:57;;;;;;;;;;;18.80;92.40;;;;;;4315565;33;45719;-82
2021/08/07 11:43:33;;;;;;;;;;;18.90;92.40;;;;;;4316207;33;46544;-86
2021/08/07 11:46:16;;;;;;;;;;;18.90;92.30;;;;;;4315588;33;44102;-83
2021/08/07 11:48:50;;;;;;;;;;;18.90;92.00;;;;;;4315951;33;45300;-83
2021/08/07 11:51:29;;;;;;;;;;;18.90;92.20;;;;;;4315556;33;43471;-79
2021/08/07 11:54:06;;;;;;;;;;;18.90;92.20;;;;;;4316986;33;43239;-86
2021/08/07 11:56:35;;;;;;;;;;;18.90;92.20;;;;;;4315383;33;43450;-82
2021/08/07 11:59:03;;;;;;;;;;;19.00;92.20;;;;;;4314980;33;43499;-81
2021/08/07 12:01:31;;;;;;;;;;;19.00;92.10;;;;;;4315293;33;43490;-86
2021/08/07 12:04:05;;;;;;;;;;;19.00;92.00;;;;;;4316722;33;45788;-79
2021/08/07 12:06:37;;;;;;;;;;;19.00;92.00;;;;;;4317128;33;45019;-81
2021/08/07 12:09:12;;;;;;;;;;;19.00;91.90;;;;;;4316449;33;43343;-80
2021/08/07 12:11:40;;;;;;;;;;;19.00;91.90;;;;;;4315517;33;42877;-80
2021/08/07 12:14:10;;;;;;;;;;;19.10;91.90;;;;;;4315590;33;43475;-84
2021/08/07 12:16:43;;;;;;;;;;;19.00;91.70;;;;;;4317100;33;20002;-82
2021/08/07 12:19:21;;;;;;;;;;;19.00;91.60;;;;;;4316724;33;45429;-80
2021/08/07 12:21:53;;;;;;;;;;;19.00;91.60;;;;;;4315325;33;45970;-78
2021/08/07 12:24:23;;;;;;;;;;;19.10;91.70;;;;;;4316532;33;43060;-84
2021/08/07 12:26:54;;;;;;;;;;;19.10;91.40;;;;;;4316036;33;43459;-82
2021/08/07 12:29:25;;;;;;;;;;;19.20;91.50;;;;;;4316717;33;43483;-81
2021/08/07 12:31:54;;;;;;;;;;;19.20;91.30;;;;;;4316654;33;45795;-80
2021/08/07 12:34:25;;;;;;;;;;;19.20;91.20;;;;;;4316131;33;42273;-80
2021/08/07 12:36:56;;;;;;;;;;;19.30;91.30;;;;;;4316258;33;43494;-79
2021/08/07 12:39:26;;;;;;;;;;;19.40;91.20;;;;;;4315338;33;44212;-83
2021/08/07 12:41:53;;;;;;;;;;;19.40;91.20;;;;;;4314897;33;44214;-80
2021/08/07 12:44:28;;;;;;;;;;;19.40;90.70;;;;;;4314903;33;43064;-84
2021/08/07 12:47:03;;;;;;;;;;;19.40;91.00;;;;;;4315802;33;20002;-83
2021/08/07 12:49:33;;;;;;;;;;;19.40;90.80;;;;;;4315095;33;44135;-81
2021/08/07 12:52:06;;;;;;;;;;;19.50;91.00;;;;;;4315682;33;44663;-80
2021/08/07 12:54:33;;;;;;;;;;;19.40;90.70;;;;;;4316351;33;43932;-80
2021/08/07 12:57:18;;;;;;;;;;;19.40;90.90;;;;;;4315722;33;44337;-80
2021/08/07 12:59:54;;;;;;;;;;;19.40;91.10;;;;;;4315137;33;43129;-83
2021/08/07 13:02:21;;;;;;;;;;;19.40;90.70;;;;;;4315674;33;45310;-80
2021/08/07 13:04:50;;;;;;;;;;;19.40;90.50;;;;;;4315521;33;43759;-80
2021/08/07 13:07:30;;;;;;;;;;;19.40;90.80;;;;;;4314918;33;44742;-83
2021/08/07 13:10:20;;;;;;;;;;;19.40;90.70;;;;;;4315749;33;45994;-80
2021/08/07 13:12:50;;;;;;;;;;;19.40;90.80;;;;;;4312705;33;43890;-80
2021/08/07 13:15:18;;;;;;;;;;;19.50;90.80;;;;;;4314693;33;42811;-80
2021/08/07 13:17:46;;;;;;;;;;;19.50;90.90;;;;;;4315006;33;44232;-81
2021/08/07 13:20:36;;;;;;;;;;;19.40;90.70;;;;;;4315770;33;46043;-79
2021/08/07 13:23:12;;;;;;;;;;;19.40;90.70;;;;;;4314876;33;45500;-80
2021/08/07 13:25:48;;;;;;;;;;;19.40;90.50;;;;;;4314731;33;44021;-82
2021/08/07 13:28:16;;;;;;;;;;;19.40;90.70;;;;;;4315904;33;43663;-82
2021/08/07 13:30:46;;;;;;;;;;;19.40;90.40;;;;;;4315424;33;44171;-84
2021/08/07 13:33:17;;;;;;;;;;;19.30;90.50;;;;;;4314694;33;43681;-79
2021/08/07 13:35:46;;;;;;;;;;;19.30;90.70;;;;;;4315682;33;44252;-81
2021/08/07 13:38:13;;;;;;;;;;;19.30;90.60;;;;;;4314272;33;44228;-82
2021/08/07 13:40:43;;;;;;;;;;;19.30;90.50;;;;;;4314420;33;43974;-85
2021/08/07 13:43:14;;;;;;;;;;;19.30;90.50;;;;;;4314855;33;43380;-80
2021/08/07 13:45:48;;;;;;;;;;;19.30;90.60;;;;;;4314636;33;43570;-83
2021/08/07 13:48:24;;;;;;;;;;;19.40;90.60;;;;;;4315738;33;19998;-80
2021/08/07 13:50:57;;;;;;;;;;;19.40;90.40;;;;;;4315957;33;44102;-81
2021/08/07 13:53:35;;;;;;;;;;;19.40;90.50;;;;;;4315588;33;42914;-82
2021/08/07 13:56:02;;;;;;;;;;;19.40;90.40;;;;;;4315656;33;43647;-82
2021/08/07 13:58:29;;;;;;;;;;;19.40;90.10;;;;;;4315714;33;43554;-85
2021/08/07 14:00:56;;;;;;;;;;;19.40;90.00;;;;;;4314644;33;43913;-81
2021/08/07 14:03:31;;;;;;;;;;;19.40;90.20;;;;;;4314601;33;43457;-80
2021/08/07 14:06:04;;;;;;;;;;;19.40;90.20;;;;;;4314204;33;43771;-80
2021/08/07 14:08:31;;;;;;;;;;;19.40;90.20;;;;;;4315655;33;43796;-83
2021/08/07 14:11:04;;;;;;;;;;;19.40;90.10;;;;;;4315207;33;43733;-82
2021/08/07 14:13:42;;;;;;;;;;;19.40;90.10;;;;;;4314486;33;45423;-85
2021/08/07 14:16:15;;;;;;;;;;;19.40;90.30;;;;;;4314407;33;46007;-83
2021/08/07 14:18:49;;;;;;;;;;;19.40;90.10;;;;;;4316434;33;19994;-82
2021/08/07 14:21:16;;;;;;;;;;;19.40;90.20;;;;;;4315804;33;43711;-82
2021/08/07 14:23:43;;;;;;;;;;;19.40;89.60;;;;;;4317156;33;43507;-86
2021/08/07 14:26:19;;;;;;;;;;;19.40;90.00;;;;;;4316753;33;42685;-87
2021/08/07 14:28:49;;;;;;;;;;;19.40;89.50;;;;;;4317174;33;44040;-84
2021/08/07 14:31:24;;;;;;;;;;;19.40;89.80;;;;;;4316535;33;44116;-82
2021/08/07 14:33:58;;;;;;;;;;;19.40;89.70;;;;;;4317104;33;42965;-79
2021/08/07 14:36:39;;;;;;;;;;;19.40;89.90;;;;;;4317922;33;43350;-81
2021/08/07 14:39:12;;;;;;;;;;;19.40;89.70;;;;;;4318141;33;43942;-83
2021/08/07 14:41:41;;;;;;;;;;;19.40;89.70;;;;;;4317729;33;43026;-80
2021/08/07 14:44:08;;;;;;;;;;;19.40;90.00;;;;;;4316594;33;43102;-79
2021/08/07 14:46:48;;;;;;;;;;;19.40;89.80;;;;;;4318011;33;43891;-80
2021/08/07 14:49:16;;;;;;;;;;;19.40;89.90;;;;;;4318868;33;20002;-80
2021/08/07 14:51:56;;;;;;;;;;;19.50;90.00;;;;;;4316486;33;42955;-80
2021/08/07 14:54:24;;;;;;;;;;;19.50;90.10;;;;;;4317314;33;42503;-83
2021/08/07 14:56:51;;;;;;;;;;;19.50;90.00;;;;;;4316402;33;45358;-83